Time;durP1;ratioP1;P1;durP2;ratioP2;P2;SDS_P1;SDS_P2;PMS_P1;PMS_P2;Temp;Humidity;BMP_temperature;BMP_pressure;BME280_temperature;BME280_humidity;BME280_pressure;Samples;Min_cycle;Max_cycle;Signal;HPM_P1;HPM_P2
2023/04/10 00:00:20;;;;;;;10.43;9.32;;;;;;;9.15;75.52;95148.84;5013762;28;20346;-72
2023/04/10 00:02:47;;;;;;;9.48;8.57;;;;;;;9.16;75.32;95147.94;5013276;28;20262;-68
2023/04/10 00:05:13;;;;;;;10.43;9.43;;;;;;;9.01;74.71;95148.38;5014429;28;20234;-70
2023/04/10 00:07:40;;;;;;;9.63;8.40;;;;;;;8.89;74.45;95154.59;5015204;28;20900;-69
2023/04/10 00:10:09;;;;;;;11.35;8.98;;;;;;;8.88;75.02;95149.56;5014233;28;20297;-64
2023/04/10 00:12:36;;;;;;;9.05;8.25;;;;;;;8.81;73.86;95142.13;5015425;28;20270;-75
2023/04/10 00:15:03;;;;;;;8.85;8.05;;;;;;;8.86;73.91;95145.38;5013685;28;20212;-64
2023/04/10 00:17:30;;;;;;;8.18;7.47;;;;;;;8.81;73.03;95139.59;5014300;28;20214;-64
2023/04/10 00:19:58;;;;;;;8.20;7.40;;;;;;;8.74;73.70;95138.06;5013294;28;20314;-69
2023/04/10 00:22:24;;;;;;;6.82;6.22;;;;;;;8.69;73.23;95139.88;5013283;28;20294;-72
2023/04/10 00:24:51;;;;;;;6.93;6.25;;;;;;;8.73;73.06;95133.88;5014211;28;20804;-68
2023/04/10 00:27:19;;;;;;;6.68;6.10;;;;;;;8.67;72.20;95139.09;5013070;28;20336;-64
2023/04/10 00:29:46;;;;;;;6.22;5.72;;;;;;;8.57;71.65;95141.91;5013125;28;20758;-64
2023/04/10 00:32:13;;;;;;;9.02;6.50;;;;;;;8.53;71.07;95146.19;5012348;28;20216;-66
2023/04/10 00:34:39;;;;;;;6.93;6.25;;;;;;;8.54;68.92;95132.66;5015027;28;20294;-67
2023/04/10 00:37:06;;;;;;;9.57;6.25;;;;;;;8.60;68.14;95132.53;5015818;28;20760;-68
2023/04/10 00:39:33;;;;;;;6.53;5.93;;;;;;;8.58;67.27;95133.44;5014973;28;20342;-67
2023/04/10 00:42:01;;;;;;;4.90;4.57;;;;;;;8.55;67.61;95118.31;5016832;28;20692;-70
2023/04/10 00:44:29;;;;;;;6.47;5.85;;;;;;;8.65;67.08;95128.19;5017329;28;20219;-69
2023/04/10 00:46:56;;;;;;;9.73;5.55;;;;;;;8.66;66.39;95132.34;5018629;28;20297;-67
2023/04/10 00:49:22;;;;;;;4.75;4.45;;;;;;;8.68;66.17;95139.91;5017417;28;20722;-65
2023/04/10 00:51:49;;;;;;;4.82;4.40;;;;;;;8.70;65.21;95144.06;5017824;28;20272;-63
2023/04/10 00:54:16;;;;;;;6.47;5.88;;;;;;;8.75;66.36;95129.59;5017817;28;20235;-70
2023/04/10 00:56:45;;;;;;;5.38;4.97;;;;;;;8.82;67.61;95128.56;5017946;28;20295;-70
2023/04/10 00:59:12;;;;;;;5.60;5.10;;;;;;;8.88;68.83;95121.69;5017452;28;20212;-67
2023/04/10 01:01:40;;;;;;;6.25;5.57;;;;;;;8.91;69.60;95129.22;5017861;28;20255;-69
2023/04/10 01:04:07;;;;;;;7.53;5.40;;;;;;;8.83;70.29;95122.63;5017746;28;20308;-69
2023/04/10 01:06:47;;;;;;;6.60;6.03;;;;;;;8.90;71.24;95123.31;5018262;28;20211;-66
2023/04/10 01:09:20;;;;;;;6.22;5.75;;;;;;;9.05;70.88;95122.06;5018035;28;20782;-66
2023/04/10 01:11:53;;;;;;;6.72;6.22;;;;;;;8.98;71.75;95115.50;5016963;28;20319;-71
2023/04/10 01:14:30;;;;;;;6.80;6.30;;;;;;;9.02;73.05;95114.53;5016863;28;20403;-68
2023/04/10 01:17:05;;;;;;;7.30;6.60;;;;;;;8.95;74.35;95102.91;5017487;28;20374;-67
2023/04/10 01:19:59;;;;;;;11.73;6.63;;;;;;;9.05;75.07;95104.31;5017608;28;20214;-66
2023/04/10 01:22:31;;;;;;;7.63;6.93;;;;;;;8.89;73.82;95108.16;5017401;28;20192;-69
2023/04/10 01:25:12;;;;;;;6.60;6.10;;;;;;;8.69;74.93;95109.47;5017778;28;20295;-71
2023/04/10 01:27:47;;;;;;;6.63;5.93;;;;;;;8.68;75.55;95105.28;5017476;28;20342;-66
2023/04/10 01:30:21;;;;;;;6.57;5.80;;;;;;;8.58;75.88;95111.47;5016207;28;20227;-73
2023/04/10 01:32:49;;;;;;;7.85;6.22;;;;;;;8.50;76.76;95110.81;5017452;28;20334;-68
2023/04/10 01:35:17;;;;;;;7.15;6.55;;;;;;;8.65;77.74;95102.84;5017065;28;20248;-70
2023/04/10 01:37:47;;;;;;;7.43;6.78;;;;;;;8.64;77.12;95108.78;5016597;28;20928;-70
2023/04/10 01:40:15;;;;;;;6.75;6.15;;;;;;;8.60;77.00;95106.34;5016815;28;20258;-68
2023/04/10 01:42:46;;;;;;;7.25;6.55;;;;;;;8.63;77.43;95097.00;5016312;28;20223;-71
2023/04/10 01:45:18;;;;;;;7.00;6.22;;;;;;;8.74;77.69;95105.13;5016712;28;20258;-68
2023/04/10 01:47:45;;;;;;;7.32;6.82;;;;;;;8.84;78.60;95109.09;5016796;28;20342;-66
2023/04/10 01:50:12;;;;;;;7.93;7.32;;;;;;;8.88;78.33;95103.94;5017006;28;20769;-70
2023/04/10 01:52:39;;;;;;;8.85;7.70;;;;;;;8.48;78.72;95108.31;5015900;28;21005;-67
2023/04/10 01:55:08;;;;;;;8.18;7.47;;;;;;;8.46;80.31;95111.75;5017076;28;20294;-70
2023/04/10 01:57:35;;;;;;;8.25;7.22;;;;;;;8.45;79.96;95115.16;5016327;28;20239;-67
2023/04/10 02:00:02;;;;;;;7.57;6.95;;;;;;;8.41;80.77;95113.59;5016786;28;20708;-69
2023/04/10 02:02:32;;;;;;;8.70;7.85;;;;;;;8.44;81.34;95121.09;5016090;28;20747;-67
2023/04/10 02:04:58;;;;;;;8.43;7.63;;;;;;;8.60;81.26;95111.44;5016896;28;20289;-69
2023/04/10 02:07:30;;;;;;;7.43;6.82;;;;;;;8.64;81.29;95108.78;5016668;28;20223;-69
2023/04/10 02:10:02;;;;;;;8.43;7.63;;;;;;;8.65;81.10;95099.47;5016876;28;20199;-69
2023/04/10 02:12:31;;;;;;;10.18;8.30;;;;;;;8.59;80.78;95099.63;5015858;28;20319;-67
2023/04/10 02:15:01;;;;;;;8.70;7.85;;;;;;;8.43;80.62;95089.03;5016818;28;20358;-68
2023/04/10 02:17:29;;;;;;;8.43;7.72;;;;;;;8.41;80.37;95090.81;5016114;28;20736;-68
2023/04/10 02:19:59;;;;;;;8.93;8.10;;;;;;;8.34;80.73;95089.28;5016796;28;20286;-69
2023/04/10 02:22:26;;;;;;;8.73;7.82;;;;;;;8.30;80.86;95083.41;5016019;28;20219;-70
2023/04/10 02:24:53;;;;;;;8.90;7.60;;;;;;;8.44;80.29;95085.63;5015463;28;20203;-66
2023/04/10 02:27:28;;;;;;;8.65;7.82;;;;;;;8.46;80.01;95082.19;5016305;28;20582;-67
2023/04/10 02:29:55;;;;;;;8.65;7.90;;;;;;;8.52;79.97;95092.19;5015481;28;20199;-71
2023/04/10 02:32:22;;;;;;;8.02;7.32;;;;;;;8.57;81.03;95081.94;5016113;28;20204;-70
2023/04/10 02:34:49;;;;;;;9.80;7.60;;;;;;;8.69;81.16;95084.13;5015081;28;20312;-67
2023/04/10 02:37:17;;;;;;;8.63;7.88;;;;;;;8.76;79.67;95077.22;5015852;28;20979;-69
2023/04/10 02:39:43;;;;;;;8.07;7.40;;;;;;;8.90;78.97;95070.09;5015924;28;20295;-72
2023/04/10 02:42:11;;;;;;;7.95;7.35;;;;;;;8.80;79.60;95068.66;5015676;28;20778;-69
2023/04/10 02:44:39;;;;;;;8.68;7.93;;;;;;;8.75;79.70;95070.50;5015462;28;20235;-68
2023/04/10 02:47:05;;;;;;;9.48;7.90;;;;;;;8.80;78.44;95061.06;5015396;28;20208;-70
2023/04/10 02:49:33;;;;;;;8.45;7.75;;;;;;;8.76;78.79;95062.84;5015021;28;20258;-68
2023/04/10 02:52:00;;;;;;;7.97;7.28;;;;;;;8.75;79.48;95056.13;5015568;28;20743;-67
2023/04/10 02:54:28;;;;;;;9.55;8.00;;;;;;;8.78;79.80;95066.19;5016083;28;20212;-68
2023/04/10 02:56:56;;;;;;;8.00;7.30;;;;;;;8.79;78.81;95047.56;5016372;28;20362;-65
2023/04/10 02:59:22;;;;;;;9.45;8.65;;;;;;;8.72;79.67;95058.72;5014918;28;20211;-67
2023/04/10 03:01:50;;;;;;;8.82;7.65;;;;;;;8.83;79.72;95051.69;5015295;28;20330;-68
2023/04/10 03:04:17;;;;;;;8.25;7.55;;;;;;;8.73;80.04;95047.72;5016617;28;20196;-68
2023/04/10 03:06:44;;;;;;;8.85;8.00;;;;;;;8.76;79.52;95055.25;5016093;28;20254;-68
2023/04/10 03:09:11;;;;;;;8.77;7.88;;;;;;;8.71;80.24;95052.00;5015861;28;20235;-70
2023/04/10 03:11:39;;;;;;;9.93;9.05;;;;;;;8.73;79.66;95049.44;5015493;28;20291;-67
2023/04/10 03:14:06;;;;;;;8.35;7.68;;;;;;;8.75;79.44;95058.66;5015031;28;20212;-70
2023/04/10 03:16:32;;;;;;;9.18;8.32;;;;;;;8.71;79.33;95054.53;5015165;28;20697;-67
2023/04/10 03:18:59;;;;;;;11.68;9.07;;;;;;;8.64;79.80;95063.19;5015416;28;20243;-68
2023/04/10 03:21:26;;;;;;;9.98;8.93;;;;;;;8.57;79.67;95061.69;5015782;28;20332;-68
2023/04/10 03:23:53;;;;;;;10.05;8.98;;;;;;;8.51;79.76;95062.66;5015587;28;20203;-70
2023/04/10 03:26:19;;;;;;;10.18;9.27;;;;;;;8.46;79.93;95063.63;5015209;28;20234;-69
2023/04/10 03:28:47;;;;;;;9.38;8.48;;;;;;;8.40;80.21;95058.75;5015400;28;20606;-67
2023/04/10 03:31:14;;;;;;;9.77;8.88;;;;;;;8.41;80.34;95062.94;5016005;28;20294;-69
2023/04/10 03:33:41;;;;;;;10.35;9.45;;;;;;;8.33;80.15;95067.34;5015328;28;20745;-67
2023/04/10 03:36:08;;;;;;;11.10;10.00;;;;;;;8.27;80.38;95068.31;5015315;28;20858;-66
2023/04/10 03:38:35;;;;;;;10.32;9.23;;;;;;;8.26;80.33;95070.88;5015433;28;20305;-70
2023/04/10 03:41:02;;;;;;;9.82;8.93;;;;;;;8.25;80.71;95062.44;5015553;28;20224;-69
2023/04/10 03:43:29;;;;;;;10.82;9.73;;;;;;;8.13;81.10;95061.06;5015403;28;20235;-67
2023/04/10 03:45:58;;;;;;;12.48;8.50;;;;;;;8.10;81.25;95071.25;5015372;28;20215;-66
2023/04/10 03:48:26;;;;;;;10.02;8.85;;;;;;;8.05;80.89;95070.53;5015026;28;20742;-70
2023/04/10 03:50:53;;;;;;;11.20;8.52;;;;;;;8.04;81.03;95071.38;5014805;28;20232;-66
2023/04/10 03:53:20;;;;;;;9.55;8.65;;;;;;;8.12;80.51;95074.56;5015498;28;20854;-69
2023/04/10 03:55:47;;;;;;;11.45;9.73;;;;;;;8.15;80.83;95074.50;5015059;28;20211;-70
2023/04/10 03:58:13;;;;;;;10.45;9.45;;;;;;;8.28;80.01;95079.25;5015413;28;20260;-70
2023/04/10 04:00:40;;;;;;;9.82;8.88;;;;;;;8.27;80.62;95082.66;5015120;28;20294;-67
2023/04/10 04:03:08;;;;;;;11.10;8.88;;;;;;;8.43;79.81;95084.81;5014840;28;21374;-69
2023/04/10 04:05:35;;;;;;;10.07;9.07;;;;;;;8.39;79.51;95082.41;5014614;28;20220;-71
2023/04/10 04:08:03;;;;;;;11.73;8.70;;;;;;;8.46;79.39;95079.66;5014581;28;20477;-68
2023/04/10 04:10:30;;;;;;;9.60;8.70;;;;;;;8.54;78.96;95087.06;5017918;28;20298;-71
2023/04/10 04:12:56;;;;;;;9.35;8.50;;;;;;;8.57;78.77;95086.16;5017934;28;20293;-70
2023/04/10 04:15:23;;;;;;;11.30;9.70;;;;;;;8.56;78.51;95089.56;5016253;28;20204;-72
2023/04/10 04:17:50;;;;;;;9.23;8.32;;;;;;;8.61;79.24;95090.28;5017490;28;20338;-69
2023/04/10 04:20:18;;;;;;;9.73;8.73;;;;;;;8.81;78.52;95085.53;5018035;28;20203;-69
2023/04/10 04:22:45;;;;;;;10.52;9.38;;;;;;;8.90;77.62;95089.53;5018604;28;20285;-70
2023/04/10 04:25:12;;;;;;;9.88;8.80;;;;;;;9.05;77.22;95084.03;5017595;28;20829;-72
2023/04/10 04:27:38;;;;;;;9.82;8.93;;;;;;;9.08;77.02;95091.56;5018849;28;20315;-72
2023/04/10 04:30:06;;;;;;;8.95;8.07;;;;;;;9.28;75.75;95079.16;5019374;28;20286;-71
2023/04/10 04:32:33;;;;;;;10.07;9.05;;;;;;;9.49;75.36;95091.22;5019049;28;20258;-69
2023/04/10 04:35:00;;;;;;;9.55;8.02;;;;;;;9.72;74.73;95088.00;5018089;28;20742;-67
2023/04/10 04:37:28;;;;;;;10.45;8.43;;;;;;;10.25;75.06;95088.09;5018409;28;20235;-70
2023/04/10 04:39:54;;;;;;;9.45;8.13;;;;;;;11.12;69.98;95100.47;5019024;28;20292;-70
2023/04/10 04:42:21;;;;;;;9.23;8.30;;;;;;;11.85;68.25;95092.72;5018834;28;20334;-66
2023/04/10 04:44:49;;;;;;;9.23;8.25;;;;;;;12.53;65.71;95089.16;5018822;28;20377;-69
2023/04/10 04:47:16;;;;;;;11.02;8.23;;;;;;;13.03;64.77;95093.88;5018047;28;20598;-72
2023/04/10 04:49:43;;;;;;;9.05;8.23;;;;;;;13.26;61.53;95098.84;5018849;28;20200;-69
2023/04/10 04:52:10;;;;;;;9.88;8.88;;;;;;;13.34;62.64;95098.53;5018034;28;20689;-67
2023/04/10 04:54:38;;;;;;;9.32;8.50;;;;;;;13.68;61.04;95092.75;5018363;28;20334;-70
2023/04/10 04:57:04;;;;;;;10.18;9.32;;;;;;;13.79;60.70;95099.03;5018005;28;20294;-66
2023/04/10 04:59:31;;;;;;;9.70;8.82;;;;;;;14.09;59.92;95106.19;5018993;28;20286;-71
2023/04/10 05:01:58;;;;;;;10.43;9.40;;;;;;;14.59;58.75;95106.38;5018109;28;20312;-68
2023/04/10 05:04:24;;;;;;;9.65;8.85;;;;;;;15.22;57.07;95104.91;5019883;28;20204;-71
2023/04/10 05:06:51;;;;;;;9.45;8.75;;;;;;;15.83;55.66;95106.06;5019370;28;20593;-68
2023/04/10 05:09:18;;;;;;;12.65;11.30;;;;;;;16.12;52.78;95107.84;5020137;28;20297;-68
2023/04/10 05:11:46;;;;;;;16.63;14.05;;;;;;;16.32;53.10;95105.03;5019198;28;20207;-69
2023/04/10 05:14:13;;;;;;;22.13;17.58;;;;;;;16.41;52.44;95103.69;5018704;28;20231;-71
2023/04/10 05:16:40;;;;;;;22.17;17.55;;;;;;;16.69;51.91;95108.13;5017532;28;20737;-70
2023/04/10 05:19:06;;;;;;;31.08;23.75;;;;;;;17.02;51.63;95109.69;5017900;28;20287;-67
2023/04/10 05:21:34;;;;;;;30.00;21.73;;;;;;;17.10;51.03;95102.34;5017266;28;20800;-69
2023/04/10 05:24:01;;;;;;;22.23;18.77;;;;;;;17.03;50.79;95106.22;5018454;28;20211;-70
2023/04/10 05:26:27;;;;;;;18.65;16.65;;;;;;;17.05;50.80;95109.53;5017626;28;20277;-71
2023/04/10 05:28:55;;;;;;;18.23;15.55;;;;;;;17.20;50.34;95100.91;5017356;28;20290;-69
2023/04/10 05:31:22;;;;;;;17.50;15.55;;;;;;;17.56;49.72;95106.44;5016983;28;20297;-69
2023/04/10 05:33:48;;;;;;;15.52;14.02;;;;;;;17.94;48.24;95108.44;5017520;28;20716;-66
2023/04/10 05:36:17;;;;;;;16.42;14.55;;;;;;;18.45;47.27;95109.50;5017531;28;21527;-70
2023/04/10 05:38:43;;;;;;;16.80;15.05;;;;;;;19.11;45.99;95110.41;5017250;28;20253;-71
2023/04/10 05:41:10;;;;;;;18.17;16.27;;;;;;;19.51;44.93;95109.44;5017359;28;20293;-69
2023/04/10 05:43:37;;;;;;;22.55;14.88;;;;;;;20.02;43.63;95109.34;5018021;28;21312;-70
2023/04/10 05:46:05;;;;;;;17.98;16.08;;;;;;;20.46;42.31;95100.25;5017053;28;20700;-70
2023/04/10 05:48:32;;;;;;;17.60;15.70;;;;;;;21.28;40.87;95101.97;5017047;28;20328;-70
2023/04/10 05:50:59;;;;;;;28.45;17.77;;;;;;;21.85;39.52;95107.03;5017046;28;20287;-65
2023/04/10 05:53:30;;;;;;;19.38;17.42;;;;;;;22.29;38.69;95095.81;5017428;28;20239;-69
2023/04/10 05:55:58;;;;;;;19.55;17.52;;;;;;;22.73;37.90;95104.41;5016907;28;20696;-70
2023/04/10 05:58:25;;;;;;;18.00;16.20;;;;;;;23.08;36.76;95109.34;5017598;28;21892;-71
2023/04/10 06:00:51;;;;;;;18.15;16.42;;;;;;;23.76;35.51;95107.16;5017260;28;20323;-69
2023/04/10 06:03:20;;;;;;;20.38;18.38;;;;;;;24.51;34.17;95104.09;5017261;28;20227;-70
2023/04/10 06:05:46;;;;;;;21.27;19.27;;;;;;;24.51;34.24;95101.50;5017165;28;20207;-66
2023/04/10 06:08:13;;;;;;;20.25;18.35;;;;;;;24.05;34.98;95114.09;5016442;28;21574;-70
2023/04/10 06:10:40;;;;;;;17.60;15.90;;;;;;;22.46;35.93;95111.81;5017009;28;20721;-70
2023/04/10 06:13:07;;;;;;;21.88;19.35;;;;;;;21.04;38.67;95110.53;5017176;28;21661;-70
2023/04/10 06:15:33;;;;;;;27.38;22.65;;;;;;;20.84;39.58;95107.78;5016432;28;20290;-70
2023/04/10 06:18:00;;;;;;;17.92;15.75;;;;;;;20.94;39.40;95103.59;5015872;28;20623;-69
2023/04/10 06:20:28;;;;;;;19.33;16.77;;;;;;;22.13;37.76;95092.81;5016151;28;20270;-69
2023/04/10 06:22:55;;;;;;;16.05;14.55;;;;;;;23.48;34.86;95095.66;5016376;28;20414;-67
2023/04/10 06:25:22;;;;;;;27.63;23.02;;;;;;;23.97;34.36;95093.19;5015785;28;20322;-67
2023/04/10 06:27:48;;;;;;;19.35;17.30;;;;;;;25.71;31.62;95081.06;5016606;28;20318;-68
2023/04/10 06:30:15;;;;;;;15.70;14.10;;;;;;;27.54;28.71;95081.53;5015663;28;20329;-70
2023/04/10 06:32:42;;;;;;;13.82;12.63;;;;;;;28.44;27.06;95081.00;5015075;28;20204;-69
2023/04/10 06:35:09;;;;;;;11.65;10.60;;;;;;;25.19;29.71;95091.97;5016511;28;20326;-71
2023/04/10 06:37:37;;;;;;;12.25;11.25;;;;;;;21.72;34.72;95093.41;5016453;28;20261;-68
2023/04/10 06:40:06;;;;;;;13.05;11.75;;;;;;;18.99;40.06;95101.75;5016214;28;20809;-70
2023/04/10 06:42:32;;;;;;;13.50;11.93;;;;;;;17.37;43.89;95105.03;5016735;28;20393;-66
2023/04/10 06:44:59;;;;;;;14.95;12.77;;;;;;;16.69;46.43;95112.44;5016584;28;20207;-66
2023/04/10 06:47:26;;;;;;;13.73;11.18;;;;;;;16.45;46.79;95117.19;5015877;28;20213;-70
2023/04/10 06:49:53;;;;;;;14.02;12.52;;;;;;;15.93;47.99;95118.28;5016429;28;20239;-71
2023/04/10 06:52:19;;;;;;;11.85;10.65;;;;;;;15.49;49.74;95120.59;5016339;28;20290;-69
2023/04/10 06:54:47;;;;;;;12.02;10.82;;;;;;;14.86;50.80;95119.53;5016372;28;20296;-70
2023/04/10 06:57:14;;;;;;;12.57;11.38;;;;;;;14.08;53.11;95117.31;5015483;28;20243;-68
2023/04/10 06:59:41;;;;;;;13.88;10.68;;;;;;;13.53;54.60;95128.28;5015956;28;20231;-70
2023/04/10 07:02:08;;;;;;;15.32;12.13;;;;;;;12.99;56.17;95128.06;5016149;28;20317;-70
2023/04/10 07:04:35;;;;;;;13.98;11.50;;;;;;;12.89;57.34;95127.59;5015887;28;20317;-70
2023/04/10 07:07:02;;;;;;;14.48;11.45;;;;;;;12.89;57.38;95119.97;5015746;28;20222;-71
2023/04/10 07:09:29;;;;;;;12.43;11.23;;;;;;;12.61;57.36;95122.84;5015699;28;20321;-67
2023/04/10 07:11:57;;;;;;;16.20;13.07;;;;;;;12.48;58.15;95121.66;5015783;28;20215;-70
2023/04/10 07:14:24;;;;;;;15.13;12.48;;;;;;;12.44;57.97;95117.56;5016011;28;20199;-66
2023/04/10 07:16:52;;;;;;;14.68;10.77;;;;;;;12.45;57.94;95126.88;5016134;28;20294;-65
2023/04/10 07:19:19;;;;;;;12.85;11.55;;;;;;;12.25;58.48;95125.13;5015660;28;20714;-71
2023/04/10 07:21:48;;;;;;;15.18;11.93;;;;;;;12.10;58.88;95130.81;5015367;28;20315;-63
2023/04/10 07:24:15;;;;;;;13.25;11.13;;;;;;;11.76;59.72;95136.31;5016848;28;20234;-70
2023/04/10 07:26:42;;;;;;;14.90;10.93;;;;;;;11.42;61.11;95132.41;5015401;28;20272;-67
2023/04/10 07:29:10;;;;;;;14.48;11.30;;;;;;;11.55;60.78;95128.56;5015814;28;20294;-71
2023/04/10 07:31:37;;;;;;;14.55;11.65;;;;;;;11.55;60.69;95131.13;5015089;28;20773;-72
2023/04/10 07:34:04;;;;;;;12.80;11.50;;;;;;;11.57;60.83;95131.88;5016459;28;20219;-71
2023/04/10 07:36:31;;;;;;;23.83;13.60;;;;;;;11.65;60.73;95134.13;5014871;28;20266;-64
2023/04/10 07:38:58;;;;;;;15.40;11.02;;;;;;;11.91;60.15;95126.41;5015093;28;20207;-66
2023/04/10 07:41:25;;;;;;;12.02;10.77;;;;;;;12.05;58.71;95135.25;5015590;28;20733;-68
2023/04/10 07:43:51;;;;;;;12.18;10.95;;;;;;;12.28;58.67;95125.00;5020388;28;20258;-70
2023/04/10 07:46:19;;;;;;;14.35;11.20;;;;;;;12.94;57.23;95125.69;5021287;28;20296;-70
2023/04/10 07:48:47;;;;;;;16.40;11.95;;;;;;;13.21;55.86;95122.03;5021874;28;20203;-69
2023/04/10 07:51:13;;;;;;;12.15;10.90;;;;;;;13.14;55.39;95118.03;5021439;28;20207;-68
2023/04/10 07:53:40;;;;;;;12.02;10.82;;;;;;;13.40;54.98;95128.88;5021898;28;20300;-70
2023/04/10 07:56:09;;;;;;;14.40;11.38;;;;;;;13.83;53.96;95132.94;5021276;28;20763;-71
2023/04/10 07:58:36;;;;;;;18.25;11.50;;;;;;;13.90;52.84;95121.53;5021670;28;20720;-70
2023/04/10 08:01:03;;;;;;;11.80;9.95;;;;;;;14.39;51.92;95122.63;5021484;28;20299;-65
2023/04/10 08:03:31;;;;;;;14.90;11.40;;;;;;;15.37;50.19;95126.31;5021488;28;20346;-69
2023/04/10 08:05:57;;;;;;;12.48;10.73;;;;;;;15.69;48.73;95129.00;5021551;28;20683;-65
2023/04/10 08:08:24;;;;;;;11.55;10.35;;;;;;;15.88;48.36;95117.69;5021558;28;20324;-68
2023/04/10 08:10:51;;;;;;;16.27;10.43;;;;;;;15.74;48.80;95112.47;5022027;28;20758;-70
2023/04/10 08:13:17;;;;;;;12.52;11.20;;;;;;;15.25;49.55;95121.84;5021907;28;20207;-68
2023/04/10 08:15:44;;;;;;;15.07;11.65;;;;;;;14.49;51.06;95121.34;5021495;28;20345;-69
2023/04/10 08:18:11;;;;;;;10.80;9.75;;;;;;;14.20;51.87;95111.63;5021649;28;20306;-71
2023/04/10 08:20:39;;;;;;;13.43;10.25;;;;;;;13.91;52.91;95115.50;5022152;28;20290;-73
2023/04/10 08:23:05;;;;;;;11.38;10.23;;;;;;;13.70;52.96;95112.22;5021235;28;20230;-67
2023/04/10 08:25:32;;;;;;;11.02;10.02;;;;;;;13.73;53.70;95119.75;5021100;28;20244;-69
2023/04/10 08:27:59;;;;;;;10.57;9.43;;;;;;;13.81;52.49;95101.53;5021490;28;20259;-69
2023/04/10 08:30:26;;;;;;;11.10;10.00;;;;;;;13.91;52.58;95111.22;5021792;28;20207;-69
2023/04/10 08:32:52;;;;;;;9.85;8.88;;;;;;;14.49;50.85;95118.78;5021068;28;20208;-69
2023/04/10 08:35:19;;;;;;;17.75;10.07;;;;;;;15.11;49.27;95122.53;5022258;28;20740;-64
2023/04/10 08:37:47;;;;;;;10.82;9.82;;;;;;;15.39;47.98;95116.84;5020623;28;20207;-71
2023/04/10 08:40:14;;;;;;;11.02;10.00;;;;;;;15.38;47.59;95115.19;5020968;28;20231;-70
2023/04/10 08:42:41;;;;;;;15.98;10.55;;;;;;;14.77;48.87;95113.16;5020104;28;20234;-69
2023/04/10 08:45:09;;;;;;;12.35;10.43;;;;;;;14.15;50.44;95113.56;5020950;28;20665;-67
2023/04/10 08:47:37;;;;;;;14.00;9.90;;;;;;;13.74;51.76;95112.91;5019370;28;20212;-67
2023/04/10 08:50:07;;;;;;;12.10;10.45;;;;;;;13.66;51.85;95105.56;5021583;28;20211;-68
2023/04/10 08:52:38;;;;;;;10.35;9.18;;;;;;;13.78;51.49;95107.59;5021580;28;20218;-67
2023/04/10 08:55:09;;;;;;;10.27;9.27;;;;;;;13.47;52.12;95110.69;5018747;28;20210;-67
2023/04/10 08:57:38;;;;;;;12.40;9.18;;;;;;;13.55;51.69;95105.25;5017754;28;20771;-70
2023/04/10 09:00:06;;;;;;;13.65;10.05;;;;;;;13.86;50.49;95107.22;5018282;28;20235;-70
2023/04/10 09:02:33;;;;;;;10.55;9.55;;;;;;;14.16;50.22;95105.00;5016804;28;20219;-67
2023/04/10 09:05:03;;;;;;;9.95;9.00;;;;;;;15.21;47.86;95102.41;5016882;28;20223;-66
2023/04/10 09:07:29;;;;;;;10.32;8.98;;;;;;;15.50;46.62;95099.19;5016507;28;20235;-68
2023/04/10 09:09:56;;;;;;;10.32;9.32;;;;;;;15.77;45.81;95093.56;5017614;28;20235;-67
2023/04/10 09:12:24;;;;;;;12.75;8.73;;;;;;;15.33;46.32;95096.69;5018260;28;20314;-70
2023/04/10 09:14:52;;;;;;;8.77;8.00;;;;;;;15.24;44.85;95094.59;5015927;28;20235;-69
2023/04/10 09:17:20;;;;;;;8.80;6.85;;;;;;;14.29;47.31;95094.13;5015048;28;20212;-68
2023/04/10 09:19:48;;;;;;;9.38;8.13;;;;;;;13.65;49.84;95087.78;5015095;28;20294;-67
2023/04/10 09:22:16;;;;;;;9.57;8.63;;;;;;;13.39;50.21;95094.88;5022656;28;20200;-69
2023/04/10 09:24:44;;;;;;;8.82;8.05;;;;;;;13.11;50.16;95082.47;5026591;28;20222;-70
2023/04/10 09:27:26;;;;;;;8.25;7.55;;;;;;;12.71;52.07;95090.94;5030933;28;20219;-71
2023/04/10 09:29:54;;;;;;;7.10;6.43;;;;;;;12.79;51.78;95080.44;5042291;28;20242;-72
2023/04/10 09:32:38;;;;;;;9.10;8.30;;;;;;;13.00;51.47;95083.81;5030666;28;20239;-72
2023/04/10 09:35:06;;;;;;;8.68;7.78;;;;;;;13.24;51.22;95098.09;5030216;28;20219;-71
2023/04/10 09:37:33;;;;;;;8.65;7.85;;;;;;;13.14;49.79;95086.59;5030705;28;20666;-73
2023/04/10 09:40:00;;;;;;;7.57;7.00;;;;;;;13.13;49.42;95090.03;5032099;28;20647;-72
2023/04/10 09:42:35;;;;;;;8.30;7.63;;;;;;;13.13;49.15;95080.66;5032345;28;20273;-72
2023/04/10 09:45:05;;;;;;;7.30;6.70;;;;;;;13.29;48.71;95075.75;5019934;28;20208;-70
2023/04/10 09:47:33;;;;;;;8.90;7.65;;;;;;;13.38;48.64;95083.00;5030271;28;20287;-71
2023/04/10 09:50:00;;;;;;;8.32;7.53;;;;;;;13.46;49.60;95078.38;5031876;28;20295;-74
2023/04/10 09:52:28;;;;;;;8.95;7.97;;;;;;;13.65;48.31;95077.56;5031173;28;20306;-73
2023/04/10 09:54:56;;;;;;;9.68;7.60;;;;;;;13.87;47.62;95076.50;5031968;28;20218;-74
2023/04/10 09:57:24;;;;;;;10.63;7.97;;;;;;;14.21;46.63;95086.00;5031377;28;20749;-71
2023/04/10 09:59:53;;;;;;;9.45;6.70;;;;;;;13.70;46.95;95090.94;5031821;28;20199;-73
2023/04/10 10:02:22;;;;;;;7.68;6.68;;;;;;;13.32;48.58;95085.00;5031244;28;20207;-73
2023/04/10 10:04:50;;;;;;;8.73;8.02;;;;;;;13.70;48.56;95090.94;5031380;28;20259;-73
2023/04/10 10:07:19;;;;;;;9.77;7.78;;;;;;;14.02;48.80;95076.72;5030494;28;20707;-72
2023/04/10 10:09:47;;;;;;;9.95;8.90;;;;;;;14.49;49.89;95079.59;5031701;28;20200;-71
2023/04/10 10:12:17;;;;;;;10.15;9.23;;;;;;;14.70;49.75;95075.97;5031578;28;20228;-72
2023/04/10 10:14:51;;;;;;;8.70;7.88;;;;;;;15.11;49.07;95070.50;5031844;28;20201;-71
2023/04/10 10:17:20;;;;;;;13.63;9.60;;;;;;;15.20;48.30;95064.94;5030918;28;20227;-73
2023/04/10 10:19:57;;;;;;;8.35;7.75;;;;;;;15.77;47.49;95048.25;5031373;28;20262;-74
2023/04/10 10:22:27;;;;;;;9.98;9.05;;;;;;;16.13;47.10;95058.22;5031249;28;20627;-71
2023/04/10 10:24:56;;;;;;;8.80;7.90;;;;;;;16.02;46.01;95055.44;5023565;28;20299;-71
2023/04/10 10:27:23;;;;;;;9.05;8.23;;;;;;;15.29;44.77;95061.91;5022909;28;20709;-71
2023/04/10 10:29:53;;;;;;;9.52;8.73;;;;;;;14.90;46.85;95060.47;5030661;28;20203;-69
2023/04/10 10:32:21;;;;;;;10.60;9.57;;;;;;;14.46;48.90;95051.63;5030706;28;20680;-73
2023/04/10 10:34:52;;;;;;;11.60;9.07;;;;;;;14.41;49.33;95048.44;5030792;28;20195;-72
2023/04/10 10:37:20;;;;;;;9.82;8.98;;;;;;;14.43;49.45;95051.75;5030951;28;20235;-74
2023/04/10 10:39:54;;;;;;;9.98;9.05;;;;;;;14.39;49.06;95051.03;5030764;28;20206;-73
2023/04/10 10:42:30;;;;;;;9.43;7.72;;;;;;;14.05;49.53;95054.41;5030755;28;20207;-70
2023/04/10 10:45:06;;;;;;;9.38;8.48;;;;;;;14.07;49.26;95055.16;5030857;28;20241;-71
2023/04/10 10:47:38;;;;;;;9.73;8.82;;;;;;;14.29;49.67;95031.97;5030496;28;20677;-71
2023/04/10 10:50:07;;;;;;;8.82;8.00;;;;;;;14.38;47.39;95034.03;5030670;28;20701;-71
2023/04/10 10:52:44;;;;;;;8.13;7.53;;;;;;;14.27;47.18;95037.13;5030448;28;20297;-73
2023/04/10 10:55:31;;;;;;;9.77;7.28;;;;;;;14.21;46.91;95027.19;5031335;28;20701;-72
2023/04/10 10:58:00;;;;;;;7.00;6.40;;;;;;;14.50;45.22;95030.09;5019124;28;20231;-70
2023/04/10 11:01:06;;;;;;;7.68;7.18;;;;;;;14.68;44.96;95021.50;5030435;28;20230;-72
2023/04/10 11:03:33;;;;;;;11.93;9.25;;;;;;;14.58;45.21;95018.59;5030326;28;20237;-68
2023/04/10 11:06:05;;;;;;;7.72;7.15;;;;;;;14.78;44.83;95004.81;5030508;28;20326;-69
2023/04/10 11:08:42;;;;;;;8.10;7.22;;;;;;;15.36;43.70;95016.28;5030731;28;20199;-71
2023/04/10 11:11:11;;;;;;;8.30;7.60;;;;;;;16.11;42.56;94993.41;5030349;28;20681;-73
2023/04/10 11:13:39;;;;;;;7.78;7.00;;;;;;;16.52;41.51;94993.63;5030022;28;20250;-73
2023/04/10 11:16:10;;;;;;;8.88;6.90;;;;;;;16.59;41.95;94996.63;5030110;28;20239;-73
2023/04/10 11:19:01;;;;;;;8.68;7.78;;;;;;;16.59;42.88;94994.06;5029850;28;20207;-73
2023/04/10 11:21:30;;;;;;;9.18;8.40;;;;;;;16.62;43.85;94993.91;5029845;28;20257;-71
2023/04/10 11:24:04;;;;;;;8.30;7.70;;;;;;;16.53;43.80;94995.28;5030550;28;20223;-70
2023/04/10 11:26:39;;;;;;;7.00;6.25;;;;;;;16.20;43.42;94992.06;5029467;28;20222;-72
2023/04/10 11:29:27;;;;;;;7.63;6.97;;;;;;;15.58;43.03;94993.81;5030358;28;20230;-72
2023/04/10 11:31:56;;;;;;;7.68;6.97;;;;;;;15.62;43.40;95001.22;5029478;28;20771;-72
2023/04/10 11:34:23;;;;;;;6.38;5.97;;;;;;;15.81;43.56;94983.13;5029765;28;20204;-72